createdAt,value
2019-05-23T00:02:16.438Z,10.73
2019-05-23T00:05:04.138Z,6.60
2019-05-23T00:07:39.049Z,6.90
2019-05-23T00:10:20.675Z,9.17
2019-05-23T00:13:04.515Z,4.80
2019-05-23T00:15:42.859Z,5.07
2019-05-23T00:18:21.085Z,8.03
2019-05-23T00:20:53.642Z,5.40
2019-05-23T00:23:28.442Z,6.10
2019-05-23T00:26:03.094Z,6.17
2019-05-23T00:28:39.218Z,8.60
2019-05-23T00:31:24.696Z,13.00
2019-05-23T00:34:00.671Z,8.10
2019-05-23T00:36:36.917Z,5.70
2019-05-23T00:39:12.001Z,8.80
2019-05-23T00:41:49.156Z,7.13
2019-05-23T00:44:24.735Z,9.77
2019-05-23T00:47:00.358Z,5.77
2019-05-23T00:49:36.346Z,6.70
2019-05-23T00:52:11.871Z,5.10
2019-05-23T00:54:47.577Z,6.00
2019-05-23T00:57:21.848Z,4.70
2019-05-23T00:59:56.226Z,6.90
2019-05-23T01:02:32.153Z,4.77
2019-05-23T01:05:07.316Z,5.10
2019-05-23T01:07:43.498Z,6.47
2019-05-23T01:10:18.427Z,5.17
2019-05-23T01:12:53.290Z,5.20
2019-05-23T01:15:27.345Z,5.47
2019-05-23T01:18:01.248Z,5.97
2019-05-23T01:20:55.033Z,5.07
2019-05-23T01:23:31.808Z,7.70
2019-05-23T01:26:08.690Z,5.40
2019-05-23T01:28:43.085Z,5.47
2019-05-23T01:31:23.592Z,5.83
2019-05-23T01:33:58.824Z,6.00
2019-05-23T01:36:34.046Z,5.50
2019-05-23T01:39:12.307Z,6.30
2019-05-23T01:41:46.993Z,4.90
2019-05-23T01:44:21.611Z,6.63
2019-05-23T01:46:57.938Z,5.37
2019-05-23T01:49:34.350Z,9.00
2019-05-23T01:52:11.825Z,6.50
2019-05-23T01:54:45.994Z,4.87
2019-05-23T01:57:22.991Z,7.73
2019-05-23T02:00:08.796Z,5.93
2019-05-23T02:02:34.676Z,9.60
2019-05-23T02:05:10.608Z,6.20
2019-05-23T02:07:44.858Z,4.97
2019-05-23T02:10:19.838Z,5.60
2019-05-23T02:12:54.062Z,5.53
2019-05-23T02:15:28.917Z,8.53
2019-05-23T02:18:06.725Z,6.10
2019-05-23T02:20:42.615Z,6.70
2019-05-23T02:23:18.341Z,5.93
2019-05-23T02:25:52.142Z,6.17
2019-05-23T02:28:25.827Z,6.80
2019-05-23T02:31:02.388Z,5.83
2019-05-23T02:33:37.719Z,7.43
2019-05-23T02:36:15.029Z,11.73
2019-05-23T02:39:08.810Z,7.70
2019-05-23T02:42:04.061Z,11.43
2019-05-23T02:44:41.175Z,7.30
2019-05-23T02:47:26.691Z,10.27
2019-05-23T02:50:01.929Z,8.30
2019-05-23T02:52:46.865Z,7.33
2019-05-23T02:55:30.799Z,6.37
2019-05-23T02:58:43.570Z,7.40
2019-05-23T03:02:08.763Z,7.93
2019-05-23T03:04:45.211Z,12.20
2019-05-23T03:07:23.943Z,8.83
2019-05-23T03:09:59.264Z,7.13
2019-05-23T03:12:34.551Z,6.40
2019-05-23T03:15:12.295Z,7.60
2019-05-23T03:17:53.281Z,7.40
2019-05-23T03:20:29.706Z,6.50
2019-05-23T03:23:13.435Z,5.60
2019-05-23T03:26:45.678Z,5.83
2019-05-23T03:29:20.419Z,5.00
2019-05-23T03:32:38.156Z,6.93
2019-05-23T03:35:23.794Z,7.10
2019-05-23T03:37:57.947Z,5.60
2019-05-23T03:40:33.339Z,6.73
2019-05-23T03:43:09.819Z,8.67
2019-05-23T03:45:53.948Z,4.37
2019-05-23T03:48:29.900Z,3.50
2019-05-23T03:51:05.262Z,9.53
2019-05-23T03:53:39.891Z,4.43
2019-05-23T03:56:13.886Z,3.70
2019-05-23T03:58:48.406Z,4.13
2019-05-23T04:01:24.546Z,4.77
2019-05-23T04:04:00.874Z,4.07
2019-05-23T04:06:35.729Z,4.30
2019-05-23T04:09:11.700Z,7.10
2019-05-23T04:11:45.933Z,6.23
2019-05-23T04:14:20.255Z,8.87
2019-05-23T04:16:55.331Z,9.50
2019-05-23T04:19:30.216Z,10.27
2019-05-23T04:22:04.028Z,9.00
2019-05-23T04:24:38.129Z,9.23
2019-05-23T04:27:12.287Z,10.00
2019-05-23T04:29:46.001Z,8.00
2019-05-23T04:32:20.020Z,10.13
2019-05-23T04:34:55.843Z,10.70
2019-05-23T04:37:31.555Z,10.00
2019-05-23T04:40:06.468Z,11.20
2019-05-23T04:42:40.374Z,11.00
2019-05-23T04:45:15.893Z,13.37
2019-05-23T04:47:51.262Z,13.10
2019-05-23T04:50:25.965Z,8.20
2019-05-23T04:53:03.144Z,10.03
2019-05-23T04:55:38.256Z,7.43
2019-05-23T04:58:13.027Z,9.97
2019-05-23T05:00:48.596Z,9.00
2019-05-23T05:03:25.253Z,12.10
2019-05-23T05:06:01.133Z,7.23
2019-05-23T05:08:35.344Z,8.10
2019-05-23T05:11:09.455Z,9.00
2019-05-23T05:13:44.388Z,9.83
2019-05-23T05:16:18.576Z,10.33
2019-05-23T05:18:56.254Z,8.90
2019-05-23T05:21:34.157Z,13.30
2019-05-23T05:24:08.387Z,13.00
2019-05-23T05:26:42.089Z,10.30
2019-05-23T05:29:16.007Z,16.90
2019-05-23T05:31:49.921Z,11.23
2019-05-23T05:34:25.229Z,11.10
2019-05-23T05:36:59.284Z,10.53
2019-05-23T05:39:37.374Z,12.23
2019-05-23T05:42:13.952Z,13.57
2019-05-23T05:44:47.974Z,9.50
2019-05-23T05:47:23.036Z,11.07
2019-05-23T05:49:59.008Z,8.50
2019-05-23T05:52:33.813Z,10.00
2019-05-23T05:55:09.454Z,11.57
2019-05-23T05:57:44.847Z,10.00
2019-05-23T06:01:06.186Z,13.70
2019-05-23T06:03:42.879Z,12.37
2019-05-23T06:06:30.475Z,12.83
2019-05-23T06:09:33.646Z,15.27
2019-05-23T06:12:08.483Z,19.60
2019-05-23T06:14:46.426Z,14.97
2019-05-23T06:17:19.721Z,16.60
2019-05-23T06:19:54.817Z,15.53
2019-05-23T06:22:30.876Z,11.63
2019-05-23T06:25:07.305Z,13.97
2019-05-23T06:27:44.224Z,11.97
2019-05-23T06:30:21.915Z,12.83
2019-05-23T06:32:55.923Z,11.43
2019-05-23T06:35:31.880Z,18.10
2019-05-23T06:38:05.706Z,12.57
2019-05-23T06:40:41.061Z,11.20
2019-05-23T06:43:15.378Z,13.30
2019-05-23T06:45:50.296Z,15.07
2019-05-23T06:48:25.531Z,13.20
2019-05-23T06:51:02.297Z,7.60
2019-05-23T06:53:36.015Z,8.07
2019-05-23T06:56:12.399Z,10.23
2019-05-23T06:58:47.354Z,8.30
2019-05-23T07:01:21.484Z,8.83
2019-05-23T07:03:56.638Z,8.23
2019-05-23T07:06:32.232Z,7.10
2019-05-23T07:09:13.189Z,8.37
2019-05-23T07:11:48.886Z,8.40
2019-05-23T07:14:22.701Z,5.70
2019-05-23T07:16:57.657Z,7.10
2019-05-23T07:19:35.336Z,7.80
2019-05-23T07:22:10.751Z,10.23
2019-05-23T07:24:57.393Z,7.33
2019-05-23T07:27:24.188Z,9.07
2019-05-23T07:30:00.589Z,5.33
2019-05-23T07:32:35.584Z,4.77
2019-05-23T07:35:12.146Z,6.00
2019-05-23T07:37:46.471Z,5.20
2019-05-23T07:40:20.476Z,11.07
2019-05-23T07:42:56.334Z,10.07
2019-05-23T07:45:40.387Z,6.63
2019-05-23T07:48:14.517Z,6.50
2019-05-23T07:50:51.614Z,7.27
2019-05-23T07:53:45.446Z,5.40
2019-05-23T07:56:20.483Z,4.20
2019-05-23T07:58:56.136Z,3.83
2019-05-23T08:01:32.589Z,2.47
2019-05-23T08:04:20.640Z,2.57
2019-05-23T08:06:42.967Z,4.03
2019-05-23T08:09:18.505Z,6.20
2019-05-23T08:11:52.301Z,2.40
2019-05-23T08:14:26.631Z,1.77
2019-05-23T08:17:03.350Z,2.70
2019-05-23T08:19:48.911Z,2.00
2019-05-23T08:22:14.618Z,4.50
2019-05-23T08:24:51.229Z,2.47
2019-05-23T08:27:26.123Z,1.87
2019-05-23T08:30:02.478Z,2.67
2019-05-23T08:32:36.550Z,5.00
2019-05-23T08:35:15.997Z,6.37
2019-05-23T08:37:47.386Z,4.87
2019-05-23T08:40:22.897Z,2.10
2019-05-23T08:42:56.999Z,1.97
2019-05-23T08:45:30.986Z,2.47
2019-05-23T08:48:05.053Z,1.50
2019-05-23T08:50:39.045Z,4.60
2019-05-23T08:53:14.947Z,2.00
2019-05-23T08:55:50.020Z,3.70
2019-05-23T08:58:24.701Z,1.90
2019-05-23T09:01:00.814Z,4.93
2019-05-23T09:03:35.518Z,3.00
2019-05-23T09:06:11.530Z,2.00
2019-05-23T09:08:47.004Z,1.87
2019-05-23T09:11:21.273Z,1.93
2019-05-23T09:13:55.649Z,3.60
2019-05-23T09:16:33.223Z,4.80
2019-05-23T09:19:07.569Z,2.60
2019-05-23T09:21:41.878Z,2.00
2019-05-23T09:24:20.524Z,3.13
2019-05-23T09:26:54.718Z,1.90
2019-05-23T09:29:28.821Z,1.60
2019-05-23T09:32:02.872Z,3.43
2019-05-23T09:34:38.806Z,1.87
2019-05-23T09:37:13.745Z,1.53
2019-05-23T09:39:48.476Z,2.67
2019-05-23T09:42:22.274Z,8.53
2019-05-23T09:44:56.065Z,2.50
2019-05-23T09:47:30.993Z,1.80
2019-05-23T09:50:06.495Z,1.40
2019-05-23T09:52:40.277Z,4.40
2019-05-23T09:55:16.441Z,2.53
2019-05-23T09:57:51.778Z,0.90
2019-05-23T10:00:27.691Z,0.80
2019-05-23T10:03:03.397Z,4.53
2019-05-23T10:05:44.438Z,1.90
2019-05-23T10:08:13.095Z,2.17
2019-05-23T10:10:47.035Z,2.87
2019-05-23T10:13:37.787Z,4.40
2019-05-23T10:16:15.353Z,2.63
2019-05-23T10:18:51.131Z,4.53
2019-05-23T10:21:24.912Z,1.80
2019-05-23T10:24:00.931Z,3.87
2019-05-23T10:26:37.530Z,4.73
2019-05-23T10:29:11.457Z,3.90
2019-05-23T10:31:45.357Z,2.93
2019-05-23T10:34:19.160Z,1.57
2019-05-23T10:36:54.630Z,2.03
2019-05-23T10:39:28.936Z,6.13
2019-05-23T10:42:02.762Z,1.83
2019-05-23T10:44:38.321Z,1.90
2019-05-23T10:47:12.671Z,1.80
2019-05-23T10:49:48.067Z,1.40
2019-05-23T10:52:23.286Z,1.20
2019-05-23T10:54:58.472Z,1.33
2019-05-23T10:57:32.422Z,1.57
2019-05-23T11:00:07.672Z,1.20
2019-05-23T11:02:43.414Z,1.20
2019-05-23T11:05:17.896Z,1.40
2019-05-23T11:07:51.802Z,1.60
2019-05-23T11:10:27.400Z,3.93
2019-05-23T11:13:02.525Z,2.60
2019-05-23T11:15:36.600Z,6.13
2019-05-23T11:18:13.901Z,4.53
2019-05-23T11:20:48.105Z,1.57
2019-05-23T11:23:26.515Z,2.53
2019-05-23T11:26:02.780Z,1.70
2019-05-23T11:28:37.475Z,2.07
2019-05-23T11:31:13.029Z,1.43
2019-05-23T11:33:48.490Z,2.20
2019-05-23T11:36:34.604Z,1.10
2019-05-23T11:38:58.925Z,1.30
2019-05-23T11:41:35.754Z,3.47
2019-05-23T11:44:09.501Z,2.63
2019-05-23T11:46:43.315Z,2.13
2019-05-23T11:49:18.583Z,1.40
2019-05-23T11:51:54.751Z,1.17
2019-05-23T11:54:30.784Z,3.33
2019-05-23T11:57:06.279Z,3.33
2019-05-23T11:59:41.053Z,3.00
2019-05-23T12:02:38.641Z,1.83
2019-05-23T12:05:20.736Z,7.87
2019-05-23T12:07:54.778Z,2.20
2019-05-23T12:10:29.823Z,1.60
2019-05-23T12:13:03.645Z,1.67
2019-05-23T12:15:40.086Z,1.80
2019-05-23T12:18:15.275Z,1.73
2019-05-23T12:20:50.051Z,1.97
2019-05-23T12:23:23.936Z,1.80
2019-05-23T12:25:59.121Z,1.80
2019-05-23T12:28:33.447Z,2.67
2019-05-23T12:31:08.233Z,4.17
2019-05-23T12:33:42.039Z,1.27
2019-05-23T12:36:16.524Z,3.50
2019-05-23T12:38:53.704Z,2.30
2019-05-23T12:41:27.565Z,6.23
2019-05-23T12:44:03.018Z,4.07
2019-05-23T12:46:36.976Z,5.27
2019-05-23T12:49:28.161Z,2.13
2019-05-23T12:52:02.860Z,1.80
2019-05-23T12:54:37.371Z,6.13
2019-05-23T12:57:11.860Z,1.23
2019-05-23T12:59:47.341Z,3.93
2019-05-23T13:02:25.747Z,3.33
2019-05-23T13:05:00.184Z,1.17
2019-05-23T13:07:36.671Z,1.53
2019-05-23T13:10:11.193Z,1.83
2019-05-23T13:12:44.988Z,2.63
2019-05-23T13:15:21.600Z,2.80
2019-05-23T13:17:55.555Z,1.27
2019-05-23T13:20:31.318Z,2.60
2019-05-23T13:23:06.954Z,1.20
2019-05-23T13:25:41.347Z,0.87
2019-05-23T13:28:16.250Z,1.40
2019-05-23T13:30:52.281Z,1.43
2019-05-23T13:33:27.961Z,8.83
2019-05-23T13:36:02.380Z,2.67
2019-05-23T13:38:36.264Z,2.07
2019-05-23T13:41:10.283Z,3.07
2019-05-23T13:43:44.740Z,3.07
2019-05-23T13:46:21.811Z,1.80
2019-05-23T13:48:56.675Z,1.73
2019-05-23T13:51:31.362Z,2.40
2019-05-23T13:54:05.963Z,1.40
2019-05-23T13:56:39.766Z,5.93
2019-05-23T13:59:14.007Z,1.67
2019-05-23T14:01:47.805Z,3.30
2019-05-23T14:04:21.630Z,7.73
2019-05-23T14:06:55.375Z,6.00
2019-05-23T14:09:30.275Z,3.00
2019-05-23T14:12:20.683Z,2.37
2019-05-23T14:14:41.953Z,2.43
2019-05-23T14:17:35.422Z,2.40
2019-05-23T14:20:10.108Z,0.70
2019-05-23T14:22:53.565Z,1.07
2019-05-23T14:25:28.506Z,1.57
2019-05-23T14:28:07.278Z,1.13
2019-05-23T14:30:48.396Z,1.93
2019-05-23T14:33:47.106Z,1.33
2019-05-23T14:36:39.897Z,1.03
2019-05-23T14:39:32.259Z,1.70
2019-05-23T14:42:16.902Z,1.80
2019-05-23T14:44:52.981Z,2.70
2019-05-23T14:47:51.527Z,0.80
2019-05-23T14:50:35.930Z,1.90
2019-05-23T14:53:11.614Z,3.00
2019-05-23T14:55:45.938Z,1.20
2019-05-23T14:58:20.200Z,1.13
2019-05-23T15:00:54.272Z,1.40
2019-05-23T15:03:28.563Z,1.37
2019-05-23T15:06:02.398Z,3.03
2019-05-23T15:08:51.169Z,0.93
2019-05-23T15:11:19.083Z,1.67
2019-05-23T15:13:52.962Z,3.20
2019-05-23T15:16:27.684Z,2.50
2019-05-23T15:19:01.387Z,2.47
2019-05-23T15:21:35.310Z,3.40
2019-05-23T15:24:09.281Z,1.63
2019-05-23T15:26:44.847Z,1.20
2019-05-23T15:29:20.925Z,3.07
2019-05-23T15:32:02.485Z,2.23
2019-05-23T15:34:35.261Z,1.10
2019-05-23T15:37:09.523Z,2.10
2019-05-23T15:39:43.647Z,1.20
2019-05-23T15:42:39.934Z,1.70
2019-05-23T15:45:16.194Z,1.00
2019-05-23T15:47:52.401Z,0.93
2019-05-23T15:50:30.283Z,1.80
2019-05-23T15:53:23.424Z,4.50
2019-05-23T15:56:28.230Z,3.27
2019-05-23T15:59:20.151Z,3.27
2019-05-23T16:02:08.157Z,1.73
2019-05-23T16:04:44.317Z,1.93
2019-05-23T16:07:19.757Z,4.43
2019-05-23T16:09:55.501Z,4.77
2019-05-23T16:12:30.173Z,1.87
2019-05-23T16:15:05.586Z,4.57
2019-05-23T16:17:39.780Z,3.17
2019-05-23T16:20:13.875Z,4.43
2019-05-23T16:22:50.206Z,5.67
2019-05-23T16:25:25.743Z,2.33
2019-05-23T16:27:59.535Z,4.23
2019-05-23T16:30:34.613Z,1.73
2019-05-23T16:33:09.546Z,2.30
2019-05-23T16:35:43.691Z,4.70
2019-05-23T16:38:17.562Z,2.30
2019-05-23T16:40:51.227Z,3.13
2019-05-23T16:43:25.195Z,5.93
2019-05-23T16:45:59.211Z,2.97
2019-05-23T16:48:34.013Z,2.00
2019-05-23T16:51:09.556Z,1.87
2019-05-23T16:53:44.328Z,2.60
2019-05-23T16:56:29.595Z,3.30
2019-05-23T16:59:12.485Z,2.13
2019-05-23T17:02:11.266Z,2.73
2019-05-23T17:05:20.167Z,3.23
2019-05-23T17:08:30.344Z,2.40
2019-05-23T17:11:14.860Z,3.50
2019-05-23T17:13:52.535Z,4.77
2019-05-23T17:16:35.318Z,2.40
2019-05-23T17:19:15.658Z,1.70
2019-05-23T17:22:11.842Z,1.67
2019-05-23T17:24:55.654Z,1.63
2019-05-23T17:27:45.051Z,2.27
2019-05-23T17:30:41.878Z,3.30
2019-05-23T17:33:27.317Z,5.03
2019-05-23T17:36:02.305Z,1.53
2019-05-23T17:38:37.526Z,2.20
2019-05-23T17:41:12.802Z,3.30
2019-05-23T17:43:47.045Z,4.83
2019-05-23T17:46:22.788Z,1.97
2019-05-23T17:48:58.494Z,5.83
2019-05-23T17:51:32.842Z,1.30
2019-05-23T17:54:07.574Z,1.70
2019-05-23T17:56:43.137Z,2.53
2019-05-23T17:59:18.486Z,3.53
2019-05-23T18:01:55.681Z,3.53
2019-05-23T18:04:33.321Z,4.57
2019-05-23T18:07:08.638Z,3.77
2019-05-23T18:09:42.935Z,1.20
2019-05-23T18:12:16.887Z,2.67
2019-05-23T18:14:51.348Z,4.40
2019-05-23T18:17:25.793Z,3.90
2019-05-23T18:20:00.115Z,4.67
2019-05-23T18:22:35.723Z,2.10
2019-05-23T18:25:12.398Z,5.17
2019-05-23T18:27:53.198Z,9.20
2019-05-23T18:30:47.812Z,4.40
2019-05-23T18:33:23.757Z,5.23
2019-05-23T18:35:58.199Z,4.00
2019-05-23T18:38:32.670Z,4.33
2019-05-23T18:41:09.549Z,2.70
2019-05-23T18:43:43.546Z,9.00
2019-05-23T18:46:22.888Z,2.10
2019-05-23T18:49:01.894Z,5.43
2019-05-23T18:51:36.412Z,8.63
2019-05-23T18:54:11.611Z,3.90
2019-05-23T18:56:45.352Z,4.37
2019-05-23T18:59:37.205Z,4.60
2019-05-23T19:02:11.862Z,12.67
2019-05-23T19:04:47.793Z,7.70
2019-05-23T19:07:22.176Z,1.90
2019-05-23T19:09:59.683Z,3.90
2019-05-23T19:12:34.729Z,4.50
2019-05-23T19:15:12.314Z,3.70
2019-05-23T19:17:46.187Z,2.10
2019-05-23T19:20:20.283Z,2.53
2019-05-23T19:22:56.280Z,6.20
2019-05-23T19:25:30.372Z,7.90
2019-05-23T19:28:05.023Z,6.90
2019-05-23T19:30:40.777Z,3.90
2019-05-23T19:33:15.026Z,4.10
2019-05-23T19:35:51.591Z,3.23
2019-05-23T19:38:27.247Z,4.30
2019-05-23T19:41:01.814Z,5.90
2019-05-23T19:43:36.646Z,7.47
2019-05-23T19:46:13.886Z,3.30
2019-05-23T19:48:51.196Z,2.37
2019-05-23T19:51:27.542Z,3.80
2019-05-23T19:54:05.461Z,3.13
2019-05-23T19:56:40.253Z,2.23
2019-05-23T19:59:25.112Z,3.17
2019-05-23T20:02:17.338Z,6.63
2019-05-23T20:05:11.812Z,2.50
2019-05-23T20:07:46.970Z,3.30
2019-05-23T20:10:24.204Z,6.73
2019-05-23T20:12:59.810Z,5.73
2019-05-23T20:15:36.145Z,3.53
2019-05-23T20:18:12.457Z,2.50
2019-05-23T20:20:50.196Z,4.20
2019-05-23T20:23:27.331Z,2.43
2019-05-23T20:26:01.403Z,5.20
2019-05-23T20:28:39.608Z,2.47
2019-05-23T20:31:13.636Z,3.97
2019-05-23T20:33:47.454Z,2.83
2019-05-23T20:36:21.969Z,2.40
2019-05-23T20:38:56.083Z,5.90
2019-05-23T20:41:30.348Z,4.17
2019-05-23T20:44:04.585Z,2.87
2019-05-23T20:46:38.986Z,3.60
2019-05-23T20:49:12.867Z,5.23
2019-05-23T20:51:46.878Z,4.30
2019-05-23T20:54:22.498Z,3.50
2019-05-23T20:56:57.956Z,6.07
2019-05-23T20:59:32.381Z,4.63
2019-05-23T21:02:06.726Z,5.87
2019-05-23T21:04:42.186Z,3.87
2019-05-23T21:07:16.262Z,6.00
2019-05-23T21:09:51.501Z,4.50
2019-05-23T21:12:29.890Z,3.77
2019-05-23T21:15:02.887Z,3.40
2019-05-23T21:17:36.705Z,2.90
2019-05-23T21:20:13.502Z,13.20
2019-05-23T21:22:47.273Z,7.70
2019-05-23T21:25:21.260Z,5.37
2019-05-23T21:27:55.239Z,2.70
2019-05-23T21:30:30.486Z,3.90
2019-05-23T21:33:04.617Z,5.50
2019-05-23T21:35:41.380Z,3.77
2019-05-23T21:38:15.143Z,7.20
2019-05-23T21:40:49.190Z,6.90
2019-05-23T21:43:24.322Z,5.53
2019-05-23T21:45:59.149Z,7.30
2019-05-23T21:48:33.189Z,7.53
2019-05-23T21:51:07.409Z,4.07
2019-05-23T21:53:41.414Z,7.33
2019-05-23T21:56:17.245Z,3.90
2019-05-23T21:58:51.199Z,5.43
2019-05-23T22:02:01.513Z,5.60
2019-05-23T22:04:58.230Z,4.17
2019-05-23T22:07:34.116Z,6.43
2019-05-23T22:10:08.114Z,4.43
2019-05-23T22:12:42.653Z,3.70
2019-05-23T22:15:34.947Z,10.90
2019-05-23T22:18:09.008Z,4.50
2019-05-23T22:20:42.899Z,4.93
2019-05-23T22:23:17.191Z,7.17
2019-05-23T22:25:51.299Z,4.43
2019-05-23T22:28:25.105Z,5.63
2019-05-23T22:31:00.278Z,7.00
2019-05-23T22:33:36.835Z,8.13
2019-05-23T22:36:11.044Z,6.27
2019-05-23T22:38:45.906Z,8.50
2019-05-23T22:41:20.083Z,3.57
2019-05-23T22:43:54.082Z,6.10
2019-05-23T22:46:29.711Z,8.10
2019-05-23T22:49:03.514Z,6.83
2019-05-23T22:51:37.250Z,3.90
2019-05-23T22:54:12.716Z,7.43
2019-05-23T22:56:47.587Z,5.10
2019-05-23T22:59:21.331Z,3.43
2019-05-23T23:01:56.391Z,9.20
2019-05-23T23:04:30.529Z,16.20
2019-05-23T23:07:04.463Z,8.10
2019-05-23T23:09:39.020Z,7.00
2019-05-23T23:12:15.099Z,10.23
2019-05-23T23:14:48.954Z,9.50
2019-05-23T23:17:23.591Z,5.60
2019-05-23T23:19:59.013Z,5.30
2019-05-23T23:22:32.808Z,5.50
2019-05-23T23:25:07.827Z,7.13
2019-05-23T23:27:43.357Z,3.80
2019-05-23T23:30:20.608Z,7.30
2019-05-23T23:32:55.415Z,4.00
2019-05-23T23:35:30.433Z,8.03
2019-05-23T23:38:04.211Z,6.13
2019-05-23T23:40:37.985Z,12.73
2019-05-23T23:43:32.420Z,6.23
2019-05-23T23:46:23.516Z,7.13
2019-05-23T23:49:14.644Z,8.90
2019-05-23T23:52:06.441Z,8.47
2019-05-23T23:54:57.643Z,10.87
2019-05-23T23:57:49.781Z,7.10
